sensor_id;sensor_type;location;lat;lon;timestamp;P1;P2;P0
42410;PMS5003;28056;51.112;0.984;2023-02-28T00:00:13;5;5;
42410;PMS5003;28056;51.112;0.984;2023-02-28T00:02:41;5;5;
42410;PMS5003;28056;51.112;0.984;2023-02-28T00:05:11;7;6;
42410;PMS5003;28056;51.112;0.984;2023-02-28T00:07:40;6;3;
42410;PMS5003;28056;51.112;0.984;2023-02-28T00:10:10;6;6;
42410;PMS5003;28056;51.112;0.984;2023-02-28T00:12:39;5;5;
42410;PMS5003;28056;51.112;0.984;2023-02-28T00:15:07;6;3;
42410;PMS5003;28056;51.112;0.984;2023-02-28T00:17:37;3;3;
42410;PMS5003;28056;51.112;0.984;2023-02-28T00:20:05;6;6;
42410;PMS5003;28056;51.112;0.984;2023-02-28T00:22:34;5;5;
42410;PMS5003;28056;51.112;0.984;2023-02-28T00:25:02;11;5;
42410;PMS5003;28056;51.112;0.984;2023-02-28T00:27:30;7;5;
42410;PMS5003;28056;51.112;0.984;2023-02-28T00:29:58;6;6;
42410;PMS5003;28056;51.112;0.984;2023-02-28T00:32:25;7;5;
42410;PMS5003;28056;51.112;0.984;2023-02-28T00:34:52;3;3;
42410;PMS5003;28056;51.112;0.984;2023-02-28T00:37:19;5;5;
42410;PMS5003;28056;51.112;0.984;2023-02-28T00:39:46;6;3;
42410;PMS5003;28056;51.112;0.984;2023-02-28T00:42:13;5;5;
42410;PMS5003;28056;51.112;0.984;2023-02-28T00:44:40;6;3;
42410;PMS5003;28056;51.112;0.984;2023-02-28T00:47:07;11;6;
42410;PMS5003;28056;51.112;0.984;2023-02-28T00:49:34;3;3;
42410;PMS5003;28056;51.112;0.984;2023-02-28T00:52:02;6;5;
42410;PMS5003;28056;51.112;0.984;2023-02-28T00:54:30;3;3;
42410;PMS5003;28056;51.112;0.984;2023-02-28T00:56:57;12;9;
42410;PMS5003;28056;51.112;0.984;2023-02-28T00:59:24;6;3;
42410;PMS5003;28056;51.112;0.984;2023-02-28T01:04:47;7;5;
42410;PMS5003;28056;51.112;0.984;2023-02-28T01:07:14;6;3;
42410;PMS5003;28056;51.112;0.984;2023-02-28T01:09:42;6;3;
42410;PMS5003;28056;51.112;0.984;2023-02-28T01:12:09;6;5;
42410;PMS5003;28056;51.112;0.984;2023-02-28T01:14:36;5;5;
42410;PMS5003;28056;51.112;0.984;2023-02-28T01:17:03;3;3;
42410;PMS5003;28056;51.112;0.984;2023-02-28T01:19:30;7;6;
42410;PMS5003;28056;51.112;0.984;2023-02-28T01:22:00;5;5;
42410;PMS5003;28056;51.112;0.984;2023-02-28T01:24:28;7;7;
42410;PMS5003;28056;51.112;0.984;2023-02-28T01:26:55;5;5;
42410;PMS5003;28056;51.112;0.984;2023-02-28T01:29:22;5;5;
42410;PMS5003;28056;51.112;0.984;2023-02-28T01:31:49;5;3;
42410;PMS5003;28056;51.112;0.984;2023-02-28T01:34:17;6;6;
42410;PMS5003;28056;51.112;0.984;2023-02-28T01:36:44;5;5;
42410;PMS5003;28056;51.112;0.984;2023-02-28T01:39:12;3;3;
42410;PMS5003;28056;51.112;0.984;2023-02-28T01:41:39;2;2;
42410;PMS5003;28056;51.112;0.984;2023-02-28T01:44:53;5;3;
42410;PMS5003;28056;51.112;0.984;2023-02-28T01:47:24;7;6;
42410;PMS5003;28056;51.112;0.984;2023-02-28T01:49:53;6;3;
42410;PMS5003;28056;51.112;0.984;2023-02-28T01:52:21;5;5;
42410;PMS5003;28056;51.112;0.984;2023-02-28T01:54:51;3;3;
42410;PMS5003;28056;51.112;0.984;2023-02-28T01:57:21;5;5;
42410;PMS5003;28056;51.112;0.984;2023-02-28T01:59:54;10;6;
42410;PMS5003;28056;51.112;0.984;2023-02-28T02:02:24;5;3;
42410;PMS5003;28056;51.112;0.984;2023-02-28T02:04:54;2;2;
42410;PMS5003;28056;51.112;0.984;2023-02-28T02:07:25;6;5;
42410;PMS5003;28056;51.112;0.984;2023-02-28T02:09:59;5;5;
42410;PMS5003;28056;51.112;0.984;2023-02-28T02:12:29;5;5;
42410;PMS5003;28056;51.112;0.984;2023-02-28T02:15:08;7;6;
42410;PMS5003;28056;51.112;0.984;2023-02-28T02:17:41;3;3;
42410;PMS5003;28056;51.112;0.984;2023-02-28T02:20:32;2;2;
42410;PMS5003;28056;51.112;0.984;2023-02-28T02:23:23;3;3;
42410;PMS5003;28056;51.112;0.984;2023-02-28T02:26:14;3;2;
42410;PMS5003;28056;51.112;0.984;2023-02-28T02:29:03;5;2;
42410;PMS5003;28056;51.112;0.984;2023-02-28T02:31:56;3;3;
42410;PMS5003;28056;51.112;0.984;2023-02-28T02:34:39;2;2;
42410;PMS5003;28056;51.112;0.984;2023-02-28T02:37:15;2;2;
42410;PMS5003;28056;51.112;0.984;2023-02-28T02:39:52;2;2;
42410;PMS5003;28056;51.112;0.984;2023-02-28T02:42:27;3;2;
42410;PMS5003;28056;51.112;0.984;2023-02-28T02:45:04;3;3;
42410;PMS5003;28056;51.112;0.984;2023-02-28T02:47:36;3;3;
42410;PMS5003;28056;51.112;0.984;2023-02-28T02:50:06;5;3;
42410;PMS5003;28056;51.112;0.984;2023-02-28T02:52:42;2;2;
42410;PMS5003;28056;51.112;0.984;2023-02-28T02:55:14;2;2;
42410;PMS5003;28056;51.112;0.984;2023-02-28T02:57:45;5;5;
42410;PMS5003;28056;51.112;0.984;2023-02-28T03:00:16;2;2;
42410;PMS5003;28056;51.112;0.984;2023-02-28T03:02:47;2;2;
42410;PMS5003;28056;51.112;0.984;2023-02-28T03:05:18;7;2;
42410;PMS5003;28056;51.112;0.984;2023-02-28T03:07:50;5;2;
42410;PMS5003;28056;51.112;0.984;2023-02-28T03:10:34;2;2;
42410;PMS5003;28056;51.112;0.984;2023-02-28T03:13:07;3;2;
42410;PMS5003;28056;51.112;0.984;2023-02-28T03:15:44;1;1;
42410;PMS5003;28056;51.112;0.984;2023-02-28T03:18:22;5;3;
42410;PMS5003;28056;51.112;0.984;2023-02-28T03:20:59;2;2;
42410;PMS5003;28056;51.112;0.984;2023-02-28T03:23:35;7;3;
42410;PMS5003;28056;51.112;0.984;2023-02-28T03:26:11;1;1;
42410;PMS5003;28056;51.112;0.984;2023-02-28T03:28:47;1;1;
42410;PMS5003;28056;51.112;0.984;2023-02-28T03:31:22;3;1;
42410;PMS5003;28056;51.112;0.984;2023-02-28T03:33:57;1;1;
42410;PMS5003;28056;51.112;0.984;2023-02-28T03:36:28;1;1;
42410;PMS5003;28056;51.112;0.984;2023-02-28T03:39:00;2;2;
42410;PMS5003;28056;51.112;0.984;2023-02-28T03:41:31;1;1;
42410;PMS5003;28056;51.112;0.984;2023-02-28T03:44:03;2;2;
42410;PMS5003;28056;51.112;0.984;2023-02-28T03:46:37;3;2;
42410;PMS5003;28056;51.112;0.984;2023-02-28T03:49:09;2;1;
42410;PMS5003;28056;51.112;0.984;2023-02-28T03:51:42;2;2;
42410;PMS5003;28056;51.112;0.984;2023-02-28T03:54:12;2;2;
42410;PMS5003;28056;51.112;0.984;2023-02-28T03:56:46;1;1;
42410;PMS5003;28056;51.112;0.984;2023-02-28T03:59:18;1;1;
42410;PMS5003;28056;51.112;0.984;2023-02-28T04:01:50;1;1;
42410;PMS5003;28056;51.112;0.984;2023-02-28T04:04:17;1;1;
42410;PMS5003;28056;51.112;0.984;2023-02-28T04:06:45;1;1;
42410;PMS5003;28056;51.112;0.984;2023-02-28T04:09:16;1;1;
42410;PMS5003;28056;51.112;0.984;2023-02-28T04:11:45;1;1;
42410;PMS5003;28056;51.112;0.984;2023-02-28T04:14:16;1;1;
42410;PMS5003;28056;51.112;0.984;2023-02-28T04:16:44;1;1;
42410;PMS5003;28056;51.112;0.984;2023-02-28T04:19:12;1;1;
42410;PMS5003;28056;51.112;0.984;2023-02-28T04:21:40;1;1;
42410;PMS5003;28056;51.112;0.984;2023-02-28T04:24:10;2;2;
42410;PMS5003;28056;51.112;0.984;2023-02-28T04:26:40;2;1;
42410;PMS5003;28056;51.112;0.984;2023-02-28T04:29:09;0;0;
42410;PMS5003;28056;51.112;0.984;2023-02-28T04:31:38;1;1;
42410;PMS5003;28056;51.112;0.984;2023-02-28T04:34:06;1;1;
42410;PMS5003;28056;51.112;0.984;2023-02-28T04:36:34;0;0;
42410;PMS5003;28056;51.112;0.984;2023-02-28T04:39:01;3;1;
42410;PMS5003;28056;51.112;0.984;2023-02-28T04:41:28;0;0;
42410;PMS5003;28056;51.112;0.984;2023-02-28T04:43:55;1;1;
42410;PMS5003;28056;51.112;0.984;2023-02-28T04:46:22;1;1;
42410;PMS5003;28056;51.112;0.984;2023-02-28T04:48:50;1;0;
42410;PMS5003;28056;51.112;0.984;2023-02-28T04:51:18;1;1;
42410;PMS5003;28056;51.112;0.984;2023-02-28T04:53:45;1;0;
42410;PMS5003;28056;51.112;0.984;2023-02-28T04:56:13;2;0;
42410;PMS5003;28056;51.112;0.984;2023-02-28T04:58:42;1;1;
42410;PMS5003;28056;51.112;0.984;2023-02-28T05:01:19;2;2;
42410;PMS5003;28056;51.112;0.984;2023-02-28T05:03:49;1;1;
42410;PMS5003;28056;51.112;0.984;2023-02-28T05:06:18;0;0;
42410;PMS5003;28056;51.112;0.984;2023-02-28T05:08:46;2;1;
42410;PMS5003;28056;51.112;0.984;2023-02-28T05:11:16;0;0;
42410;PMS5003;28056;51.112;0.984;2023-02-28T05:13:45;1;1;
42410;PMS5003;28056;51.112;0.984;2023-02-28T05:16:14;1;0;
42410;PMS5003;28056;51.112;0.984;2023-02-28T05:18:41;1;1;
42410;PMS5003;28056;51.112;0.984;2023-02-28T05:21:17;1;1;
42410;PMS5003;28056;51.112;0.984;2023-02-28T05:23:50;1;1;
42410;PMS5003;28056;51.112;0.984;2023-02-28T05:26:18;1;1;
42410;PMS5003;28056;51.112;0.984;2023-02-28T05:28:46;0;0;
42410;PMS5003;28056;51.112;0.984;2023-02-28T05:31:13;2;0;
42410;PMS5003;28056;51.112;0.984;2023-02-28T05:33:40;5;2;
42410;PMS5003;28056;51.112;0.984;2023-02-28T05:36:07;6;2;
42410;PMS5003;28056;51.112;0.984;2023-02-28T05:38:35;2;2;
42410;PMS5003;28056;51.112;0.984;2023-02-28T05:41:04;7;5;
42410;PMS5003;28056;51.112;0.984;2023-02-28T05:43:32;3;2;
42410;PMS5003;28056;51.112;0.984;2023-02-28T05:46:02;6;3;
42410;PMS5003;28056;51.112;0.984;2023-02-28T05:48:30;5;5;
42410;PMS5003;28056;51.112;0.984;2023-02-28T05:50:57;3;3;
42410;PMS5003;28056;51.112;0.984;2023-02-28T05:53:25;5;3;
42410;PMS5003;28056;51.112;0.984;2023-02-28T05:55:52;7;3;
42410;PMS5003;28056;51.112;0.984;2023-02-28T05:58:19;6;3;
42410;PMS5003;28056;51.112;0.984;2023-02-28T06:00:46;3;3;
42410;PMS5003;28056;51.112;0.984;2023-02-28T06:03:14;6;5;
42410;PMS5003;28056;51.112;0.984;2023-02-28T06:05:41;5;5;
42410;PMS5003;28056;51.112;0.984;2023-02-28T06:08:08;9;7;
42410;PMS5003;28056;51.112;0.984;2023-02-28T06:10:35;5;5;
42410;PMS5003;28056;51.112;0.984;2023-02-28T06:13:03;5;5;
42410;PMS5003;28056;51.112;0.984;2023-02-28T06:15:31;2;2;
42410;PMS5003;28056;51.112;0.984;2023-02-28T06:17:59;5;2;
42410;PMS5003;28056;51.112;0.984;2023-02-28T06:20:27;2;2;
42410;PMS5003;28056;51.112;0.984;2023-02-28T06:22:55;5;1;
42410;PMS5003;28056;51.112;0.984;2023-02-28T06:25:23;1;1;
42410;PMS5003;28056;51.112;0.984;2023-02-28T06:27:51;1;1;
42410;PMS5003;28056;51.112;0.984;2023-02-28T06:30:18;3;2;
42410;PMS5003;28056;51.112;0.984;2023-02-28T06:32:45;2;2;
42410;PMS5003;28056;51.112;0.984;2023-02-28T06:35:12;1;1;
42410;PMS5003;28056;51.112;0.984;2023-02-28T06:37:40;2;1;
42410;PMS5003;28056;51.112;0.984;2023-02-28T06:40:07;1;1;
42410;PMS5003;28056;51.112;0.984;2023-02-28T06:42:36;1;1;
42410;PMS5003;28056;51.112;0.984;2023-02-28T06:45:03;4;1;
42410;PMS5003;28056;51.112;0.984;2023-02-28T06:47:31;1;1;
42410;PMS5003;28056;51.112;0.984;2023-02-28T06:49:58;2;1;
42410;PMS5003;28056;51.112;0.984;2023-02-28T06:52:25;0;0;
42410;PMS5003;28056;51.112;0.984;2023-02-28T06:54:52;0;0;
42410;PMS5003;28056;51.112;0.984;2023-02-28T06:57:19;1;1;
42410;PMS5003;28056;51.112;0.984;2023-02-28T06:59:46;1;1;
42410;PMS5003;28056;51.112;0.984;2023-02-28T07:02:15;0;0;
42410;PMS5003;28056;51.112;0.984;2023-02-28T07:04:42;1;1;
42410;PMS5003;28056;51.112;0.984;2023-02-28T07:07:10;0;0;
42410;PMS5003;28056;51.112;0.984;2023-02-28T07:09:37;1;1;
42410;PMS5003;28056;51.112;0.984;2023-02-28T07:12:04;1;0;
42410;PMS5003;28056;51.112;0.984;2023-02-28T07:14:32;1;1;
42410;PMS5003;28056;51.112;0.984;2023-02-28T07:16:59;0;0;
42410;PMS5003;28056;51.112;0.984;2023-02-28T07:19:27;1;0;
42410;PMS5003;28056;51.112;0.984;2023-02-28T07:21:54;0;0;
42410;PMS5003;28056;51.112;0.984;2023-02-28T07:24:21;0;0;
42410;PMS5003;28056;51.112;0.984;2023-02-28T07:26:48;0;0;
42410;PMS5003;28056;51.112;0.984;2023-02-28T07:29:16;0;0;
42410;PMS5003;28056;51.112;0.984;2023-02-28T07:31:43;0;0;
42410;PMS5003;28056;51.112;0.984;2023-02-28T07:34:10;0;0;
42410;PMS5003;28056;51.112;0.984;2023-02-28T07:36:37;0;0;
42410;PMS5003;28056;51.112;0.984;2023-02-28T07:39:04;1;1;
42410;PMS5003;28056;51.112;0.984;2023-02-28T07:41:31;2;0;
42410;PMS5003;28056;51.112;0.984;2023-02-28T07:43:59;0;0;
42410;PMS5003;28056;51.112;0.984;2023-02-28T07:46:26;0;0;
42410;PMS5003;28056;51.112;0.984;2023-02-28T07:48:54;4;1;
42410;PMS5003;28056;51.112;0.984;2023-02-28T07:51:22;4;1;
42410;PMS5003;28056;51.112;0.984;2023-02-28T07:53:49;4;1;
42410;PMS5003;28056;51.112;0.984;2023-02-28T07:56:16;1;1;
42410;PMS5003;28056;51.112;0.984;2023-02-28T07:58:43;1;1;
42410;PMS5003;28056;51.112;0.984;2023-02-28T08:01:10;5;2;
42410;PMS5003;28056;51.112;0.984;2023-02-28T08:03:38;2;2;
42410;PMS5003;28056;51.112;0.984;2023-02-28T08:06:07;2;1;
42410;PMS5003;28056;51.112;0.984;2023-02-28T08:08:41;4;2;
42410;PMS5003;28056;51.112;0.984;2023-02-28T08:11:09;1;1;
42410;PMS5003;28056;51.112;0.984;2023-02-28T08:13:37;1;1;
42410;PMS5003;28056;51.112;0.984;2023-02-28T08:16:04;2;2;
42410;PMS5003;28056;51.112;0.984;2023-02-28T08:18:32;4;4;
42410;PMS5003;28056;51.112;0.984;2023-02-28T08:20:59;2;2;
42410;PMS5003;28056;51.112;0.984;2023-02-28T08:23:31;1;1;
42410;PMS5003;28056;51.112;0.984;2023-02-28T08:25:59;0;0;
42410;PMS5003;28056;51.112;0.984;2023-02-28T08:28:26;4;4;
42410;PMS5003;28056;51.112;0.984;2023-02-28T08:30:53;4;2;
42410;PMS5003;28056;51.112;0.984;2023-02-28T08:33:20;1;1;
42410;PMS5003;28056;51.112;0.984;2023-02-28T08:35:48;2;2;
42410;PMS5003;28056;51.112;0.984;2023-02-28T08:38:18;2;1;
42410;PMS5003;28056;51.112;0.984;2023-02-28T08:40:45;2;2;
42410;PMS5003;28056;51.112;0.984;2023-02-28T08:43:12;1;1;
42410;PMS5003;28056;51.112;0.984;2023-02-28T08:45:39;1;1;
42410;PMS5003;28056;51.112;0.984;2023-02-28T08:48:06;1;1;
42410;PMS5003;28056;51.112;0.984;2023-02-28T08:50:33;0;0;
42410;PMS5003;28056;51.112;0.984;2023-02-28T08:53:00;5;1;
42410;PMS5003;28056;51.112;0.984;2023-02-28T08:55:28;2;2;
42410;PMS5003;28056;51.112;0.984;2023-02-28T08:57:55;1;1;
42410;PMS5003;28056;51.112;0.984;2023-02-28T09:00:23;5;1;
42410;PMS5003;28056;51.112;0.984;2023-02-28T09:02:50;2;2;
42410;PMS5003;28056;51.112;0.984;2023-02-28T09:05:17;5;1;
42410;PMS5003;28056;51.112;0.984;2023-02-28T09:07:44;1;1;
42410;PMS5003;28056;51.112;0.984;2023-02-28T09:10:12;0;0;
42410;PMS5003;28056;51.112;0.984;2023-02-28T09:12:39;2;2;
42410;PMS5003;28056;51.112;0.984;2023-02-28T09:15:12;1;1;
42410;PMS5003;28056;51.112;0.984;2023-02-28T09:17:40;2;1;
42410;PMS5003;28056;51.112;0.984;2023-02-28T09:20:07;2;1;
42410;PMS5003;28056;51.112;0.984;2023-02-28T09:22:35;0;0;
42410;PMS5003;28056;51.112;0.984;2023-02-28T09:25:03;2;1;
42410;PMS5003;28056;51.112;0.984;2023-02-28T09:27:31;2;2;
42410;PMS5003;28056;51.112;0.984;2023-02-28T09:29:58;1;1;
42410;PMS5003;28056;51.112;0.984;2023-02-28T09:32:25;0;0;
42410;PMS5003;28056;51.112;0.984;2023-02-28T09:34:52;0;0;
42410;PMS5003;28056;51.112;0.984;2023-02-28T09:37:19;0;0;
42410;PMS5003;28056;51.112;0.984;2023-02-28T09:39:46;1;1;
42410;PMS5003;28056;51.112;0.984;2023-02-28T09:42:18;1;1;
42410;PMS5003;28056;51.112;0.984;2023-02-28T09:44:51;0;0;
42410;PMS5003;28056;51.112;0.984;2023-02-28T09:47:20;2;0;
42410;PMS5003;28056;51.112;0.984;2023-02-28T09:49:57;2;2;
42410;PMS5003;28056;51.112;0.984;2023-02-28T09:52:30;1;1;
42410;PMS5003;28056;51.112;0.984;2023-02-28T09:55:00;2;2;
42410;PMS5003;28056;51.112;0.984;2023-02-28T09:57:42;1;1;
42410;PMS5003;28056;51.112;0.984;2023-02-28T10:00:12;0;0;
42410;PMS5003;28056;51.112;0.984;2023-02-28T10:00:17;0;0;
42410;PMS5003;28056;51.112;0.984;2023-02-28T10:02:52;1;1;
42410;PMS5003;28056;51.112;0.984;2023-02-28T10:05:30;2;1;
42410;PMS5003;28056;51.112;0.984;2023-02-28T10:08:05;0;0;
42410;PMS5003;28056;51.112;0.984;2023-02-28T10:10:39;1;1;
42410;PMS5003;28056;51.112;0.984;2023-02-28T10:13:13;1;1;
42410;PMS5003;28056;51.112;0.984;2023-02-28T10:15:45;1;1;
42410;PMS5003;28056;51.112;0.984;2023-02-28T10:18:19;1;1;
42410;PMS5003;28056;51.112;0.984;2023-02-28T10:20:50;1;1;
42410;PMS5003;28056;51.112;0.984;2023-02-28T10:23:20;1;1;
42410;PMS5003;28056;51.112;0.984;2023-02-28T10:25:54;0;0;
42410;PMS5003;28056;51.112;0.984;2023-02-28T10:28:25;0;0;
42410;PMS5003;28056;51.112;0.984;2023-02-28T10:30:55;0;0;
42410;PMS5003;28056;51.112;0.984;2023-02-28T10:33:23;1;1;
42410;PMS5003;28056;51.112;0.984;2023-02-28T10:35:54;1;1;
42410;PMS5003;28056;51.112;0.984;2023-02-28T10:38:22;1;1;
42410;PMS5003;28056;51.112;0.984;2023-02-28T10:40:51;0;0;
42410;PMS5003;28056;51.112;0.984;2023-02-28T10:43:29;2;0;
42410;PMS5003;28056;51.112;0.984;2023-02-28T10:45:58;0;0;
42410;PMS5003;28056;51.112;0.984;2023-02-28T10:48:32;1;1;
42410;PMS5003;28056;51.112;0.984;2023-02-28T10:51:03;0;0;
42410;PMS5003;28056;51.112;0.984;2023-02-28T10:53:33;0;0;
42410;PMS5003;28056;51.112;0.984;2023-02-28T10:56:05;0;0;
42410;PMS5003;28056;51.112;0.984;2023-02-28T10:58:47;1;1;
42410;PMS5003;28056;51.112;0.984;2023-02-28T11:01:17;0;0;
42410;PMS5003;28056;51.112;0.984;2023-02-28T11:03:46;1;1;
42410;PMS5003;28056;51.112;0.984;2023-02-28T11:06:15;1;1;
42410;PMS5003;28056;51.112;0.984;2023-02-28T11:08:47;1;1;
42410;PMS5003;28056;51.112;0.984;2023-02-28T11:11:16;0;0;
42410;PMS5003;28056;51.112;0.984;2023-02-28T11:13:46;0;0;
42410;PMS5003;28056;51.112;0.984;2023-02-28T11:16:16;5;1;
42410;PMS5003;28056;51.112;0.984;2023-02-28T11:18:47;0;0;
42410;PMS5003;28056;51.112;0.984;2023-02-28T11:21:19;0;0;
42410;PMS5003;28056;51.112;0.984;2023-02-28T11:23:51;0;0;
42410;PMS5003;28056;51.112;0.984;2023-02-28T11:26:38;0;0;
42410;PMS5003;28056;51.112;0.984;2023-02-28T11:29:10;0;0;
42410;PMS5003;28056;51.112;0.984;2023-02-28T11:31:42;1;1;
42410;PMS5003;28056;51.112;0.984;2023-02-28T11:34:25;0;0;
42410;PMS5003;28056;51.112;0.984;2023-02-28T11:36:55;2;0;
42410;PMS5003;28056;51.112;0.984;2023-02-28T11:39:24;0;0;
42410;PMS5003;28056;51.112;0.984;2023-02-28T11:41:58;0;0;
42410;PMS5003;28056;51.112;0.984;2023-02-28T11:44:39;0;0;
42410;PMS5003;28056;51.112;0.984;2023-02-28T11:47:21;1;1;
42410;PMS5003;28056;51.112;0.984;2023-02-28T11:49:59;1;1;
42410;PMS5003;28056;51.112;0.984;2023-02-28T11:52:40;3;2;
42410;PMS5003;28056;51.112;0.984;2023-02-28T11:55:16;7;2;
42410;PMS5003;28056;51.112;0.984;2023-02-28T11:57:51;2;2;
42410;PMS5003;28056;51.112;0.984;2023-02-28T12:00:29;3;3;
42410;PMS5003;28056;51.112;0.984;2023-02-28T12:03:08;2;2;
42410;PMS5003;28056;51.112;0.984;2023-02-28T12:05:46;3;2;
42410;PMS5003;28056;51.112;0.984;2023-02-28T12:08:25;2;2;
42410;PMS5003;28056;51.112;0.984;2023-02-28T12:11:06;2;2;
42410;PMS5003;28056;51.112;0.984;2023-02-28T12:13:45;2;2;
42410;PMS5003;28056;51.112;0.984;2023-02-28T12:16:26;3;3;
42410;PMS5003;28056;51.112;0.984;2023-02-28T12:19:04;2;2;
42410;PMS5003;28056;51.112;0.984;2023-02-28T12:21:45;2;2;
42410;PMS5003;28056;51.112;0.984;2023-02-28T12:24:26;3;3;
42410;PMS5003;28056;51.112;0.984;2023-02-28T12:27:07;2;2;
42410;PMS5003;28056;51.112;0.984;2023-02-28T12:29:41;1;1;
42410;PMS5003;28056;51.112;0.984;2023-02-28T12:32:15;1;1;
42410;PMS5003;28056;51.112;0.984;2023-02-28T12:34:48;1;1;
42410;PMS5003;28056;51.112;0.984;2023-02-28T12:37:19;3;2;
42410;PMS5003;28056;51.112;0.984;2023-02-28T12:39:52;3;2;
42410;PMS5003;28056;51.112;0.984;2023-02-28T12:42:27;2;2;
42410;PMS5003;28056;51.112;0.984;2023-02-28T12:44:58;2;2;
42410;PMS5003;28056;51.112;0.984;2023-02-28T12:47:28;1;1;
42410;PMS5003;28056;51.112;0.984;2023-02-28T12:49:56;1;1;
42410;PMS5003;28056;51.112;0.984;2023-02-28T12:52:30;0;0;
42410;PMS5003;28056;51.112;0.984;2023-02-28T12:55:04;2;2;
42410;PMS5003;28056;51.112;0.984;2023-02-28T12:57:39;3;1;
42410;PMS5003;28056;51.112;0.984;2023-02-28T13:00:12;2;2;
42410;PMS5003;28056;51.112;0.984;2023-02-28T13:02:47;3;2;
42410;PMS5003;28056;51.112;0.984;2023-02-28T13:06:43;2;2;
42410;PMS5003;28056;51.112;0.984;2023-02-28T13:09:25;2;2;
42410;PMS5003;28056;51.112;0.984;2023-02-28T13:11:53;2;2;
42410;PMS5003;28056;51.112;0.984;2023-02-28T13:14:26;2;2;
42410;PMS5003;28056;51.112;0.984;2023-02-28T13:17:00;2;2;
42410;PMS5003;28056;51.112;0.984;2023-02-28T13:19:36;2;2;
42410;PMS5003;28056;51.112;0.984;2023-02-28T13:22:16;2;2;
42410;PMS5003;28056;51.112;0.984;2023-02-28T13:24:46;2;2;
42410;PMS5003;28056;51.112;0.984;2023-02-28T13:27:22;1;1;
42410;PMS5003;28056;51.112;0.984;2023-02-28T13:29:57;2;2;
42410;PMS5003;28056;51.112;0.984;2023-02-28T13:32:29;1;1;
42410;PMS5003;28056;51.112;0.984;2023-02-28T13:35:15;2;2;
42410;PMS5003;28056;51.112;0.984;2023-02-28T13:38:24;1;1;
42410;PMS5003;28056;51.112;0.984;2023-02-28T13:41:42;2;2;
42410;PMS5003;28056;51.112;0.984;2023-02-28T13:44:11;11;7;
42410;PMS5003;28056;51.112;0.984;2023-02-28T13:47:44;1;1;
42410;PMS5003;28056;51.112;0.984;2023-02-28T13:50:21;0;0;
42410;PMS5003;28056;51.112;0.984;2023-02-28T13:52:56;2;1;
42410;PMS5003;28056;51.112;0.984;2023-02-28T13:55:35;2;2;
42410;PMS5003;28056;51.112;0.984;2023-02-28T13:58:16;1;1;
42410;PMS5003;28056;51.112;0.984;2023-02-28T14:00:59;0;0;
42410;PMS5003;28056;51.112;0.984;2023-02-28T14:03:41;2;2;
42410;PMS5003;28056;51.112;0.984;2023-02-28T14:06:23;2;2;
42410;PMS5003;28056;51.112;0.984;2023-02-28T14:08:55;2;2;
42410;PMS5003;28056;51.112;0.984;2023-02-28T14:11:30;3;3;
42410;PMS5003;28056;51.112;0.984;2023-02-28T14:14:00;3;2;
42410;PMS5003;28056;51.112;0.984;2023-02-28T14:16:35;5;2;
42410;PMS5003;28056;51.112;0.984;2023-02-28T14:19:10;10;3;
42410;PMS5003;28056;51.112;0.984;2023-02-28T14:21:43;6;6;
42410;PMS5003;28056;51.112;0.984;2023-02-28T14:24:24;2;2;
42410;PMS5003;28056;51.112;0.984;2023-02-28T14:28:10;2;2;
42410;PMS5003;28056;51.112;0.984;2023-02-28T14:30:55;2;2;
42410;PMS5003;28056;51.112;0.984;2023-02-28T14:33:38;2;2;
42410;PMS5003;28056;51.112;0.984;2023-02-28T14:36:21;5;3;
42410;PMS5003;28056;51.112;0.984;2023-02-28T14:38:55;1;1;
42410;PMS5003;28056;51.112;0.984;2023-02-28T14:41:29;1;1;
42410;PMS5003;28056;51.112;0.984;2023-02-28T14:43:58;3;1;
42410;PMS5003;28056;51.112;0.984;2023-02-28T14:46:28;1;1;
42410;PMS5003;28056;51.112;0.984;2023-02-28T14:49:03;2;1;
42410;PMS5003;28056;51.112;0.984;2023-02-28T14:51:31;0;0;
42410;PMS5003;28056;51.112;0.984;2023-02-28T14:54:00;2;2;
42410;PMS5003;28056;51.112;0.984;2023-02-28T14:56:32;2;0;
42410;PMS5003;28056;51.112;0.984;2023-02-28T14:59:03;1;1;
42410;PMS5003;28056;51.112;0.984;2023-02-28T15:01:31;1;0;
42410;PMS5003;28056;51.112;0.984;2023-02-28T15:04:00;0;0;
42410;PMS5003;28056;51.112;0.984;2023-02-28T15:06:30;1;1;
42410;PMS5003;28056;51.112;0.984;2023-02-28T15:09:06;0;0;
42410;PMS5003;28056;51.112;0.984;2023-02-28T15:11:37;1;1;
42410;PMS5003;28056;51.112;0.984;2023-02-28T15:14:05;2;1;
42410;PMS5003;28056;51.112;0.984;2023-02-28T15:16:34;1;1;
42410;PMS5003;28056;51.112;0.984;2023-02-28T15:19:05;0;0;
42410;PMS5003;28056;51.112;0.984;2023-02-28T15:21:41;1;1;
42410;PMS5003;28056;51.112;0.984;2023-02-28T15:24:12;3;0;
42410;PMS5003;28056;51.112;0.984;2023-02-28T15:26:46;1;1;
42410;PMS5003;28056;51.112;0.984;2023-02-28T15:29:19;1;1;
42410;PMS5003;28056;51.112;0.984;2023-02-28T15:31:48;2;1;
42410;PMS5003;28056;51.112;0.984;2023-02-28T15:34:18;5;5;
42410;PMS5003;28056;51.112;0.984;2023-02-28T15:36:47;14;11;
42410;PMS5003;28056;51.112;0.984;2023-02-28T15:39:19;17;15;
42410;PMS5003;28056;51.112;0.984;2023-02-28T15:41:49;25;18;
42410;PMS5003;28056;51.112;0.984;2023-02-28T15:44:17;22;19;
42410;PMS5003;28056;51.112;0.984;2023-02-28T15:46:54;18;15;
42410;PMS5003;28056;51.112;0.984;2023-02-28T15:49:25;15;11;
42410;PMS5003;28056;51.112;0.984;2023-02-28T15:51:53;20;15;
42410;PMS5003;28056;51.112;0.984;2023-02-28T15:54:27;21;19;
42410;PMS5003;28056;51.112;0.984;2023-02-28T15:56:57;23;14;
42410;PMS5003;28056;51.112;0.984;2023-02-28T15:59:30;26;21;
42410;PMS5003;28056;51.112;0.984;2023-02-28T16:02:02;22;19;
42410;PMS5003;28056;51.112;0.984;2023-02-28T16:04:54;21;18;
42410;PMS5003;28056;51.112;0.984;2023-02-28T16:07:23;17;15;
42410;PMS5003;28056;51.112;0.984;2023-02-28T16:09:51;21;21;
42410;PMS5003;28056;51.112;0.984;2023-02-28T16:12:18;18;15;
42410;PMS5003;28056;51.112;0.984;2023-02-28T16:14:47;25;23;
42410;PMS5003;28056;51.112;0.984;2023-02-28T16:17:20;25;22;
42410;PMS5003;28056;51.112;0.984;2023-02-28T16:19:48;24;22;
42410;PMS5003;28056;51.112;0.984;2023-02-28T16:22:16;22;21;
42410;PMS5003;28056;51.112;0.984;2023-02-28T16:24:44;22;21;
42410;PMS5003;28056;51.112;0.984;2023-02-28T16:27:15;21;21;
42410;PMS5003;28056;51.112;0.984;2023-02-28T16:29:45;33;30;
42410;PMS5003;28056;51.112;0.984;2023-02-28T16:32:14;29;24;
42410;PMS5003;28056;51.112;0.984;2023-02-28T16:34:42;25;22;
42410;PMS5003;28056;51.112;0.984;2023-02-28T16:37:12;21;21;
42410;PMS5003;28056;51.112;0.984;2023-02-28T16:39:40;17;17;
42410;PMS5003;28056;51.112;0.984;2023-02-28T16:42:10;18;18;
42410;PMS5003;28056;51.112;0.984;2023-02-28T16:44:42;16;16;
42410;PMS5003;28056;51.112;0.984;2023-02-28T16:47:10;20;18;
42410;PMS5003;28056;51.112;0.984;2023-02-28T16:49:39;17;17;
42410;PMS5003;28056;51.112;0.984;2023-02-28T16:52:06;17;16;
42410;PMS5003;28056;51.112;0.984;2023-02-28T16:54:33;16;10;
42410;PMS5003;28056;51.112;0.984;2023-02-28T16:57:01;16;16;
42410;PMS5003;28056;51.112;0.984;2023-02-28T16:59:28;13;10;
42410;PMS5003;28056;51.112;0.984;2023-02-28T17:01:55;14;12;
42410;PMS5003;28056;51.112;0.984;2023-02-28T17:04:23;12;12;
42410;PMS5003;28056;51.112;0.984;2023-02-28T17:06:50;9;9;
42410;PMS5003;28056;51.112;0.984;2023-02-28T17:09:20;12;9;
42410;PMS5003;28056;51.112;0.984;2023-02-28T17:11:49;10;10;
42410;PMS5003;28056;51.112;0.984;2023-02-28T17:14:18;14;12;
42410;PMS5003;28056;51.112;0.984;2023-02-28T17:16:45;28;21;
42410;PMS5003;28056;51.112;0.984;2023-02-28T17:19:14;25;20;